sensor_id;sensor_type;location;lat;lon;timestamp;pressure;altitude;pressure_sealevel;temperature;humidity
62926;BME280;55732;52.248;-0.844;2023-07-31T00:01:23;99790.11;;;16.52;90.60
62926;BME280;55732;52.248;-0.844;2023-07-31T00:03:49;99789.38;;;16.53;90.53
62926;BME280;55732;52.248;-0.844;2023-07-31T00:06:15;99785.77;;;16.54;90.36
62926;BME280;55732;52.248;-0.844;2023-07-31T00:08:40;99784.33;;;16.54;90.16
62926;BME280;55732;52.248;-0.844;2023-07-31T00:11:06;99785.04;;;16.55;90.38
62926;BME280;55732;52.248;-0.844;2023-07-31T00:13:31;99779.64;;;16.56;90.49
62926;BME280;55732;52.248;-0.844;2023-07-31T00:15:57;99771.09;;;16.57;90.39
62926;BME280;55732;52.248;-0.844;2023-07-31T00:18:22;99771.06;;;16.57;90.36
62926;BME280;55732;52.248;-0.844;2023-07-31T00:20:48;99768.70;;;16.59;90.55
62926;BME280;55732;52.248;-0.844;2023-07-31T00:23:13;99765.83;;;16.60;90.60
62926;BME280;55732;52.248;-0.844;2023-07-31T00:25:39;99756.73;;;16.61;90.60
62926;BME280;55732;52.248;-0.844;2023-07-31T00:28:05;99748.18;;;16.63;90.61
62926;BME280;55732;52.248;-0.844;2023-07-31T00:30:30;99748.30;;;16.64;90.55
62926;BME280;55732;52.248;-0.844;2023-07-31T00:32:56;99744.67;;;16.65;90.69
62926;BME280;55732;52.248;-0.844;2023-07-31T00:35:21;99743.23;;;16.66;90.66
62926;BME280;55732;52.248;-0.844;2023-07-31T00:37:47;99735.20;;;16.67;90.58
62926;BME280;55732;52.248;-0.844;2023-07-31T00:40:13;99737.48;;;16.67;90.53
62926;BME280;55732;52.248;-0.844;2023-07-31T00:42:39;99737.44;;;16.68;90.53
62926;BME280;55732;52.248;-0.844;2023-07-31T00:45:05;99727.46;;;16.69;90.61
62926;BME280;55732;52.248;-0.844;2023-07-31T00:47:31;99726.03;;;16.70;90.59
62926;BME280;55732;52.248;-0.844;2023-07-31T00:49:57;99720.27;;;16.71;90.58
62926;BME280;55732;52.248;-0.844;2023-07-31T00:52:23;99717.38;;;16.73;90.71
62926;BME280;55732;52.248;-0.844;2023-07-31T00:54:49;99711.41;;;16.75;90.76
62926;BME280;55732;52.248;-0.844;2023-07-31T00:57:15;99710.81;;;16.76;90.85
62926;BME280;55732;52.248;-0.844;2023-07-31T00:59:41;99706.70;;;16.77;90.75
62926;BME280;55732;52.248;-0.844;2023-07-31T01:02:06;99707.52;;;16.79;90.70
62926;BME280;55732;52.248;-0.844;2023-07-31T01:04:32;99711.70;;;16.81;90.74
62926;BME280;55732;52.248;-0.844;2023-07-31T01:07:25;99706.91;;;16.81;90.75
62926;BME280;55732;52.248;-0.844;2023-07-31T01:10:02;99703.12;;;16.82;91.04
62926;BME280;55732;52.248;-0.844;2023-07-31T01:12:30;99698.23;;;16.84;90.94
62926;BME280;55732;52.248;-0.844;2023-07-31T01:15:04;99687.19;;;16.85;90.87
62926;BME280;55732;52.248;-0.844;2023-07-31T01:17:30;99687.84;;;16.86;91.01
62926;BME280;55732;52.248;-0.844;2023-07-31T01:19:59;99683.50;;;16.87;91.05
62926;BME280;55732;52.248;-0.844;2023-07-31T01:22:31;99678.51;;;16.88;91.17
62926;BME280;55732;52.248;-0.844;2023-07-31T01:25:35;99675.24;;;16.89;91.14
62926;BME280;55732;52.248;-0.844;2023-07-31T01:28:10;99667.38;;;16.90;91.16
62926;BME280;55732;52.248;-0.844;2023-07-31T01:30:44;99666.80;;;16.91;91.08
62926;BME280;55732;52.248;-0.844;2023-07-31T01:33:14;99661.23;;;16.93;91.04
62926;BME280;55732;52.248;-0.844;2023-07-31T01:35:44;99659.94;;;16.94;91.21
62926;BME280;55732;52.248;-0.844;2023-07-31T01:38:11;99653.84;;;16.96;91.28
62926;BME280;55732;52.248;-0.844;2023-07-31T01:40:37;99646.33;;;16.96;91.24
62926;BME280;55732;52.248;-0.844;2023-07-31T01:43:02;99649.66;;;16.98;91.32
62926;BME280;55732;52.248;-0.844;2023-07-31T01:45:28;99645.00;;;16.99;91.38
62926;BME280;55732;52.248;-0.844;2023-07-31T01:47:53;99643.70;;;17.00;91.39
62926;BME280;55732;52.248;-0.844;2023-07-31T01:50:19;99638.65;;;17.01;91.30
62926;BME280;55732;52.248;-0.844;2023-07-31T01:52:44;99640.39;;;17.02;91.30
62926;BME280;55732;52.248;-0.844;2023-07-31T01:55:09;99635.73;;;17.03;91.34
62926;BME280;55732;52.248;-0.844;2023-07-31T01:57:36;99634.64;;;17.03;91.48
62926;BME280;55732;52.248;-0.844;2023-07-31T02:00:03;99629.63;;;17.04;91.62
62926;BME280;55732;52.248;-0.844;2023-07-31T02:02:28;99625.71;;;17.04;91.89
62926;BME280;55732;52.248;-0.844;2023-07-31T02:04:54;99628.04;;;17.04;91.72
62926;BME280;55732;52.248;-0.844;2023-07-31T02:07:19;99628.77;;;17.03;91.60
62926;BME280;55732;52.248;-0.844;2023-07-31T02:09:44;99629.45;;;17.04;91.76
62926;BME280;55732;52.248;-0.844;2023-07-31T02:12:12;99628.02;;;17.05;91.97
62926;BME280;55732;52.248;-0.844;2023-07-31T02:14:39;99621.94;;;17.05;91.93
62926;BME280;55732;52.248;-0.844;2023-07-31T02:17:05;99616.28;;;17.04;91.91
62926;BME280;55732;52.248;-0.844;2023-07-31T02:19:30;99609.19;;;17.04;92.05
62926;BME280;55732;52.248;-0.844;2023-07-31T02:21:56;99602.98;;;17.04;92.11
62926;BME280;55732;52.248;-0.844;2023-07-31T02:24:21;99594.45;;;17.03;92.27
62926;BME280;55732;52.248;-0.844;2023-07-31T02:26:47;99595.73;;;17.02;92.48
62926;BME280;55732;52.248;-0.844;2023-07-31T02:29:12;99598.02;;;17.03;92.65
62926;BME280;55732;52.248;-0.844;2023-07-31T02:31:38;99593.45;;;17.02;92.68
62926;BME280;55732;52.248;-0.844;2023-07-31T02:34:03;99596.65;;;17.02;92.88
62926;BME280;55732;52.248;-0.844;2023-07-31T02:36:28;99590.45;;;17.01;93.01
62926;BME280;55732;52.248;-0.844;2023-07-31T02:38:54;99590.66;;;17.00;93.26
62926;BME280;55732;52.248;-0.844;2023-07-31T02:41:20;99589.06;;;17.00;93.40
62926;BME280;55732;52.248;-0.844;2023-07-31T02:43:46;99583.45;;;16.99;93.56
62926;BME280;55732;52.248;-0.844;2023-07-31T02:46:11;99580.45;;;16.99;93.72
62926;BME280;55732;52.248;-0.844;2023-07-31T02:48:36;99584.06;;;16.97;93.86
62926;BME280;55732;52.248;-0.844;2023-07-31T02:51:02;99585.70;;;16.96;94.00
62926;BME280;55732;52.248;-0.844;2023-07-31T02:53:28;99585.20;;;16.95;94.18
62926;BME280;55732;52.248;-0.844;2023-07-31T02:55:53;99591.05;;;16.95;94.24
62926;BME280;55732;52.248;-0.844;2023-07-31T02:58:19;99588.19;;;16.96;94.12
62926;BME280;55732;52.248;-0.844;2023-07-31T03:00:45;99583.95;;;16.95;94.17
62926;BME280;55732;52.248;-0.844;2023-07-31T03:03:11;99583.06;;;16.95;94.38
62926;BME280;55732;52.248;-0.844;2023-07-31T03:05:36;99582.89;;;16.95;94.41
62926;BME280;55732;52.248;-0.844;2023-07-31T03:08:02;99580.58;;;16.95;94.62
62926;BME280;55732;52.248;-0.844;2023-07-31T03:10:29;99576.67;;;16.95;94.61
62926;BME280;55732;52.248;-0.844;2023-07-31T03:12:54;99579.33;;;16.95;94.84
62926;BME280;55732;52.248;-0.844;2023-07-31T03:15:20;99576.13;;;16.95;94.95
62926;BME280;55732;52.248;-0.844;2023-07-31T03:17:45;99567.04;;;16.96;95.03
62926;BME280;55732;52.248;-0.844;2023-07-31T03:20:11;99568.25;;;16.97;95.23
62926;BME280;55732;52.248;-0.844;2023-07-31T03:22:37;99573.59;;;16.97;95.14
62926;BME280;55732;52.248;-0.844;2023-07-31T03:25:03;99568.35;;;16.94;95.32
62926;BME280;55732;52.248;-0.844;2023-07-31T03:27:29;99576.22;;;16.97;95.44
62926;BME280;55732;52.248;-0.844;2023-07-31T03:29:54;99567.64;;;16.95;95.48
62926;BME280;55732;52.248;-0.844;2023-07-31T03:32:20;99569.75;;;16.99;95.48
62926;BME280;55732;52.248;-0.844;2023-07-31T03:34:45;99566.70;;;17.00;95.61
62926;BME280;55732;52.248;-0.844;2023-07-31T03:37:11;99568.63;;;17.00;95.73
62926;BME280;55732;52.248;-0.844;2023-07-31T03:39:36;99562.20;;;17.00;95.62
62926;BME280;55732;52.248;-0.844;2023-07-31T03:42:02;99563.08;;;17.01;95.56
62926;BME280;55732;52.248;-0.844;2023-07-31T03:44:28;99561.10;;;17.01;95.55
62926;BME280;55732;52.248;-0.844;2023-07-31T03:46:53;99554.31;;;17.02;95.78
62926;BME280;55732;52.248;-0.844;2023-07-31T03:49:19;99550.26;;;17.01;95.90
62926;BME280;55732;52.248;-0.844;2023-07-31T03:51:44;99556.61;;;17.03;95.99
62926;BME280;55732;52.248;-0.844;2023-07-31T03:54:10;99549.32;;;17.02;95.94
62926;BME280;55732;52.248;-0.844;2023-07-31T03:56:35;99544.85;;;17.03;95.88
62926;BME280;55732;52.248;-0.844;2023-07-31T03:59:01;99542.70;;;17.03;95.94
62926;BME280;55732;52.248;-0.844;2023-07-31T04:01:26;99548.58;;;17.03;95.83
62926;BME280;55732;52.248;-0.844;2023-07-31T04:03:52;99547.35;;;17.03;95.79
62926;BME280;55732;52.248;-0.844;2023-07-31T04:06:17;99552.36;;;17.02;95.68
62926;BME280;55732;52.248;-0.844;2023-07-31T04:08:45;99550.80;;;17.01;95.79
62926;BME280;55732;52.248;-0.844;2023-07-31T04:11:11;99552.98;;;17.00;95.71
62926;BME280;55732;52.248;-0.844;2023-07-31T04:13:38;99549.17;;;16.98;95.72
62926;BME280;55732;52.248;-0.844;2023-07-31T04:16:04;99544.78;;;16.96;95.77
62926;BME280;55732;52.248;-0.844;2023-07-31T04:18:29;99541.60;;;16.96;95.84
62926;BME280;55732;52.248;-0.844;2023-07-31T04:20:57;99540.35;;;16.96;95.88
62926;BME280;55732;52.248;-0.844;2023-07-31T04:23:27;99538.77;;;16.96;95.93
62926;BME280;55732;52.248;-0.844;2023-07-31T04:25:53;99534.86;;;16.96;96.07
62926;BME280;55732;52.248;-0.844;2023-07-31T04:28:19;99537.58;;;16.94;96.04
62926;BME280;55732;52.248;-0.844;2023-07-31T04:30:44;99543.12;;;16.94;96.06
62926;BME280;55732;52.248;-0.844;2023-07-31T04:33:10;99542.41;;;16.94;95.99
62926;BME280;55732;52.248;-0.844;2023-07-31T04:35:35;99534.16;;;16.91;95.95
62926;BME280;55732;52.248;-0.844;2023-07-31T04:38:01;99543.98;;;16.94;95.98
62926;BME280;55732;52.248;-0.844;2023-07-31T04:40:27;99548.23;;;16.94;95.99
62926;BME280;55732;52.248;-0.844;2023-07-31T04:42:53;99549.09;;;16.95;95.95
62926;BME280;55732;52.248;-0.844;2023-07-31T04:45:18;99546.19;;;16.97;95.75
62926;BME280;55732;52.248;-0.844;2023-07-31T04:47:44;99549.35;;;16.98;95.72
62926;BME280;55732;52.248;-0.844;2023-07-31T04:50:10;99549.17;;;16.98;95.69
62926;BME280;55732;52.248;-0.844;2023-07-31T04:52:39;99546.15;;;16.98;95.76
62926;BME280;55732;52.248;-0.844;2023-07-31T04:55:04;99546.13;;;16.98;95.76
62926;BME280;55732;52.248;-0.844;2023-07-31T04:57:30;99546.34;;;16.98;95.62
62926;BME280;55732;52.248;-0.844;2023-07-31T04:59:55;99552.02;;;16.98;95.59
62926;BME280;55732;52.248;-0.844;2023-07-31T05:02:21;99549.69;;;16.99;95.55
62926;BME280;55732;52.248;-0.844;2023-07-31T05:04:46;99550.08;;;17.01;95.50
62926;BME280;55732;52.248;-0.844;2023-07-31T05:07:12;99545.25;;;17.06;95.39
62926;BME280;55732;52.248;-0.844;2023-07-31T05:09:37;99544.80;;;17.08;95.19
62926;BME280;55732;52.248;-0.844;2023-07-31T05:12:05;99539.19;;;17.10;95.04
62926;BME280;55732;52.248;-0.844;2023-07-31T05:14:31;99538.53;;;17.13;94.99
62926;BME280;55732;52.248;-0.844;2023-07-31T05:16:56;99540.01;;;17.15;94.88
62926;BME280;55732;52.248;-0.844;2023-07-31T05:19:22;99543.98;;;17.18;94.89
62926;BME280;55732;52.248;-0.844;2023-07-31T05:21:47;99546.02;;;17.21;94.75
62926;BME280;55732;52.248;-0.844;2023-07-31T05:24:13;99547.10;;;17.24;94.42
62926;BME280;55732;52.248;-0.844;2023-07-31T05:26:39;99549.06;;;17.27;94.27
62926;BME280;55732;52.248;-0.844;2023-07-31T05:29:04;99546.48;;;17.30;94.09
62926;BME280;55732;52.248;-0.844;2023-07-31T05:31:29;99545.81;;;17.33;93.79
62926;BME280;55732;52.248;-0.844;2023-07-31T05:33:57;99551.75;;;17.35;93.64
62926;BME280;55732;52.248;-0.844;2023-07-31T05:36:23;99544.16;;;17.38;93.42
62926;BME280;55732;52.248;-0.844;2023-07-31T05:38:49;99537.50;;;17.40;93.17
62926;BME280;55732;52.248;-0.844;2023-07-31T05:41:14;99539.54;;;17.42;92.93
62926;BME280;55732;52.248;-0.844;2023-07-31T05:43:40;99544.78;;;17.48;92.77
62926;BME280;55732;52.248;-0.844;2023-07-31T05:46:06;99544.50;;;17.65;92.46
62926;BME280;55732;52.248;-0.844;2023-07-31T05:48:32;99545.73;;;18.03;91.56
62926;BME280;55732;52.248;-0.844;2023-07-31T05:50:59;99545.49;;;18.26;90.48
62926;BME280;55732;52.248;-0.844;2023-07-31T05:53:25;99546.27;;;18.25;89.92
62926;BME280;55732;52.248;-0.844;2023-07-31T05:55:50;99547.73;;;18.25;89.54
62926;BME280;55732;52.248;-0.844;2023-07-31T05:58:15;99547.04;;;18.24;89.32
62926;BME280;55732;52.248;-0.844;2023-07-31T06:00:41;99547.92;;;18.24;89.33
62926;BME280;55732;52.248;-0.844;2023-07-31T06:03:07;99549.96;;;18.26;89.29
62926;BME280;55732;52.248;-0.844;2023-07-31T06:05:32;99557.15;;;18.29;88.85
62926;BME280;55732;52.248;-0.844;2023-07-31T06:07:57;99558.70;;;18.29;88.68
62926;BME280;55732;52.248;-0.844;2023-07-31T06:10:22;99561.40;;;18.29;88.17
62926;BME280;55732;52.248;-0.844;2023-07-31T06:12:48;99548.05;;;18.29;87.94
62926;BME280;55732;52.248;-0.844;2023-07-31T06:15:13;99547.94;;;18.28;87.80
62926;BME280;55732;52.248;-0.844;2023-07-31T06:17:39;99542.97;;;18.20;87.66
62926;BME280;55732;52.248;-0.844;2023-07-31T06:20:06;99547.03;;;18.21;87.51
62926;BME280;55732;52.248;-0.844;2023-07-31T06:22:31;99540.80;;;18.17;87.36
62926;BME280;55732;52.248;-0.844;2023-07-31T06:24:57;99539.52;;;18.14;87.33
62926;BME280;55732;52.248;-0.844;2023-07-31T06:27:23;99538.83;;;18.14;87.22
62926;BME280;55732;52.248;-0.844;2023-07-31T06:29:48;99535.59;;;18.14;87.10
62926;BME280;55732;52.248;-0.844;2023-07-31T06:32:13;99528.10;;;18.14;87.02
62926;BME280;55732;52.248;-0.844;2023-07-31T06:34:39;99530.40;;;18.15;86.88
62926;BME280;55732;52.248;-0.844;2023-07-31T06:37:04;99524.86;;;18.11;86.84
62926;BME280;55732;52.248;-0.844;2023-07-31T06:39:30;99533.05;;;18.15;86.86
62926;BME280;55732;52.248;-0.844;2023-07-31T06:41:55;99537.65;;;18.16;86.52
62926;BME280;55732;52.248;-0.844;2023-07-31T06:44:20;99539.20;;;18.17;86.53
62926;BME280;55732;52.248;-0.844;2023-07-31T06:46:46;99522.05;;;18.10;86.27
62926;BME280;55732;52.248;-0.844;2023-07-31T06:49:11;99529.68;;;18.25;86.30
62926;BME280;55732;52.248;-0.844;2023-07-31T06:51:36;99529.81;;;18.27;86.61
62926;BME280;55732;52.248;-0.844;2023-07-31T06:54:03;99523.20;;;18.27;86.42
62926;BME280;55732;52.248;-0.844;2023-07-31T06:56:29;99519.48;;;18.30;86.13
62926;BME280;55732;52.248;-0.844;2023-07-31T06:58:55;99512.73;;;18.40;86.02
62926;BME280;55732;52.248;-0.844;2023-07-31T07:01:21;99508.73;;;18.52;85.28
62926;BME280;55732;52.248;-0.844;2023-07-31T07:03:46;99514.16;;;18.68;85.12
62926;BME280;55732;52.248;-0.844;2023-07-31T07:06:11;99526.06;;;18.80;84.55
62926;BME280;55732;52.248;-0.844;2023-07-31T07:08:37;99528.61;;;18.82;84.37
62926;BME280;55732;52.248;-0.844;2023-07-31T07:11:02;99534.11;;;18.86;83.92
62926;BME280;55732;52.248;-0.844;2023-07-31T07:13:27;99532.19;;;18.92;83.75
62926;BME280;55732;52.248;-0.844;2023-07-31T07:15:53;99528.41;;;19.02;83.41
62926;BME280;55732;52.248;-0.844;2023-07-31T07:18:18;99519.34;;;19.09;82.79
62926;BME280;55732;52.248;-0.844;2023-07-31T07:20:51;99521.95;;;19.20;82.62
62926;BME280;55732;52.248;-0.844;2023-07-31T07:23:17;99520.27;;;19.28;82.76
62926;BME280;55732;52.248;-0.844;2023-07-31T07:25:43;99510.70;;;19.36;82.32
62926;BME280;55732;52.248;-0.844;2023-07-31T07:28:09;99507.02;;;19.46;81.69
62926;BME280;55732;52.248;-0.844;2023-07-31T07:30:34;99509.84;;;19.53;81.33
62926;BME280;55732;52.248;-0.844;2023-07-31T07:33:00;99500.26;;;19.52;81.20
62926;BME280;55732;52.248;-0.844;2023-07-31T07:35:25;99508.78;;;19.57;80.60
62926;BME280;55732;52.248;-0.844;2023-07-31T07:37:50;99517.52;;;19.69;80.42
62926;BME280;55732;52.248;-0.844;2023-07-31T07:40:16;99519.07;;;19.80;80.17
62926;BME280;55732;52.248;-0.844;2023-07-31T07:42:41;99517.41;;;19.84;79.56
62926;BME280;55732;52.248;-0.844;2023-07-31T07:45:07;99506.30;;;19.94;78.89
62926;BME280;55732;52.248;-0.844;2023-07-31T07:47:33;99503.27;;;20.09;78.41
62926;BME280;55732;52.248;-0.844;2023-07-31T07:49:58;99501.52;;;20.18;77.78
62926;BME280;55732;52.248;-0.844;2023-07-31T07:52:23;99488.45;;;20.17;77.63
62926;BME280;55732;52.248;-0.844;2023-07-31T07:54:49;99492.14;;;20.19;77.26
62926;BME280;55732;52.248;-0.844;2023-07-31T07:57:15;99480.98;;;20.15;77.34
62926;BME280;55732;52.248;-0.844;2023-07-31T07:59:41;99480.72;;;20.03;77.10
62926;BME280;55732;52.248;-0.844;2023-07-31T08:02:06;99477.89;;;19.91;77.12
62926;BME280;55732;52.248;-0.844;2023-07-31T08:04:31;99471.94;;;19.79;77.53
62926;BME280;55732;52.248;-0.844;2023-07-31T08:06:57;99467.85;;;19.72;77.57
62926;BME280;55732;52.248;-0.844;2023-07-31T08:09:22;99465.77;;;19.69;77.66
62926;BME280;55732;52.248;-0.844;2023-07-31T08:11:47;99471.61;;;19.66;77.40
62926;BME280;55732;52.248;-0.844;2023-07-31T08:14:13;99480.09;;;19.65;77.45
62926;BME280;55732;52.248;-0.844;2023-07-31T08:16:39;99490.49;;;19.61;77.26
62926;BME280;55732;52.248;-0.844;2023-07-31T08:19:04;99495.89;;;19.57;77.34
62926;BME280;55732;52.248;-0.844;2023-07-31T08:21:29;99495.14;;;19.58;77.61
62926;BME280;55732;52.248;-0.844;2023-07-31T08:23:55;99490.89;;;19.57;77.33
62926;BME280;55732;52.248;-0.844;2023-07-31T08:26:20;99489.72;;;19.59;77.53
62926;BME280;55732;52.248;-0.844;2023-07-31T08:28:46;99490.44;;;19.62;77.50
62926;BME280;55732;52.248;-0.844;2023-07-31T08:31:11;99477.40;;;19.62;77.40
62926;BME280;55732;52.248;-0.844;2023-07-31T08:33:38;99479.55;;;19.59;77.64
62926;BME280;55732;52.248;-0.844;2023-07-31T08:36:04;99483.63;;;19.56;77.73
62926;BME280;55732;52.248;-0.844;2023-07-31T08:38:30;99481.05;;;19.50;77.79
62926;BME280;55732;52.248;-0.844;2023-07-31T08:40:57;99478.61;;;19.46;77.70
62926;BME280;55732;52.248;-0.844;2023-07-31T08:43:22;99464.63;;;19.40;77.73
62926;BME280;55732;52.248;-0.844;2023-07-31T08:45:50;99473.02;;;19.34;77.88
62926;BME280;55732;52.248;-0.844;2023-07-31T08:48:17;99486.00;;;19.28;77.53
62926;BME280;55732;52.248;-0.844;2023-07-31T08:50:43;99499.70;;;19.23;77.55
62926;BME280;55732;52.248;-0.844;2023-07-31T08:53:08;99501.05;;;19.21;77.66
62926;BME280;55732;52.248;-0.844;2023-07-31T08:55:35;99489.27;;;19.14;77.43
62926;BME280;55732;52.248;-0.844;2023-07-31T08:58:03;99485.94;;;19.10;77.50
62926;BME280;55732;52.248;-0.844;2023-07-31T09:00:30;99491.44;;;19.13;77.33
62926;BME280;55732;52.248;-0.844;2023-07-31T09:03:08;99482.06;;;19.15;77.18
62926;BME280;55732;52.248;-0.844;2023-07-31T09:05:36;99473.61;;;19.17;77.04
62926;BME280;55732;52.248;-0.844;2023-07-31T09:08:05;99465.05;;;19.17;77.26
62926;BME280;55732;52.248;-0.844;2023-07-31T09:10:32;99463.80;;;19.20;77.27
62926;BME280;55732;52.248;-0.844;2023-07-31T09:12:58;99475.73;;;19.27;77.11
62926;BME280;55732;52.248;-0.844;2023-07-31T09:15:24;99471.02;;;19.31;76.93
62926;BME280;55732;52.248;-0.844;2023-07-31T09:18:01;99463.77;;;19.36;76.85
62926;BME280;55732;52.248;-0.844;2023-07-31T09:20:27;99463.48;;;19.45;76.68
62926;BME280;55732;52.248;-0.844;2023-07-31T09:22:53;99454.38;;;19.52;76.50
62926;BME280;55732;52.248;-0.844;2023-07-31T09:25:25;99469.29;;;19.63;76.37
62926;BME280;55732;52.248;-0.844;2023-07-31T09:30:17;99476.75;;;19.70;75.70
62926;BME280;55732;52.248;-0.844;2023-07-31T09:32:44;99468.10;;;19.74;75.81
62926;BME280;55732;52.248;-0.844;2023-07-31T09:35:19;99462.67;;;19.85;75.67
62926;BME280;55732;52.248;-0.844;2023-07-31T09:37:56;99456.77;;;19.91;75.55
62926;BME280;55732;52.248;-0.844;2023-07-31T09:40:26;99448.90;;;19.92;75.33
62926;BME280;55732;52.248;-0.844;2023-07-31T09:42:54;99452.84;;;19.94;75.17
62926;BME280;55732;52.248;-0.844;2023-07-31T09:45:20;99454.00;;;19.93;75.38
62926;BME280;55732;52.248;-0.844;2023-07-31T09:47:47;99448.77;;;20.00;75.25
62926;BME280;55732;52.248;-0.844;2023-07-31T09:50:14;99449.31;;;20.12;75.26
62926;BME280;55732;52.248;-0.844;2023-07-31T09:52:41;99453.71;;;20.13;74.80
62926;BME280;55732;52.248;-0.844;2023-07-31T09:55:08;99463.58;;;20.16;74.79
62926;BME280;55732;52.248;-0.844;2023-07-31T09:57:33;99464.58;;;20.19;74.61
62926;BME280;55732;52.248;-0.844;2023-07-31T10:00:00;99468.80;;;20.25;74.62
62926;BME280;55732;52.248;-0.844;2023-07-31T10:02:27;99463.83;;;20.32;74.00
62926;BME280;55732;52.248;-0.844;2023-07-31T10:04:55;99467.65;;;20.28;73.77
62926;BME280;55732;52.248;-0.844;2023-07-31T10:07:25;99467.18;;;20.15;73.79
62926;BME280;55732;52.248;-0.844;2023-07-31T10:09:51;99473.83;;;20.08;74.14
62926;BME280;55732;52.248;-0.844;2023-07-31T10:12:19;99475.23;;;20.08;74.18
62926;BME280;55732;52.248;-0.844;2023-07-31T10:14:45;99466.47;;;20.15;73.87
62926;BME280;55732;52.248;-0.844;2023-07-31T10:17:11;99468.24;;;20.25;73.36
62926;BME280;55732;52.248;-0.844;2023-07-31T10:19:38;99460.27;;;20.27;73.19
62926;BME280;55732;52.248;-0.844;2023-07-31T10:22:05;99451.40;;;20.22;72.92
62926;BME280;55732;52.248;-0.844;2023-07-31T10:24:32;99445.25;;;20.17;73.09
62926;BME280;55732;52.248;-0.844;2023-07-31T10:26:59;99440.39;;;20.17;73.12
62926;BME280;55732;52.248;-0.844;2023-07-31T10:29:27;99432.66;;;20.18;73.11
62926;BME280;55732;52.248;-0.844;2023-07-31T10:31:56;99437.49;;;20.18;73.24
62926;BME280;55732;52.248;-0.844;2023-07-31T10:34:22;99437.71;;;20.15;73.38
62926;BME280;55732;52.248;-0.844;2023-07-31T10:36:48;99431.66;;;20.11;73.45
62926;BME280;55732;52.248;-0.844;2023-07-31T10:39:35;99437.04;;;20.11;73.52
62926;BME280;55732;52.248;-0.844;2023-07-31T10:42:12;99455.58;;;20.09;73.03
62926;BME280;55732;52.248;-0.844;2023-07-31T10:44:38;99458.43;;;20.06;72.00
62926;BME280;55732;52.248;-0.844;2023-07-31T10:47:08;99461.93;;;20.04;71.52
62926;BME280;55732;52.248;-0.844;2023-07-31T10:49:33;99467.56;;;20.08;71.27
62926;BME280;55732;52.248;-0.844;2023-07-31T10:51:59;99472.29;;;20.13;70.94
62926;BME280;55732;52.248;-0.844;2023-07-31T10:54:24;99481.05;;;20.16;70.56
62926;BME280;55732;52.248;-0.844;2023-07-31T10:56:50;99477.45;;;20.14;70.65
62926;BME280;55732;52.248;-0.844;2023-07-31T10:59:17;99473.25;;;20.06;70.87
62926;BME280;55732;52.248;-0.844;2023-07-31T11:01:54;99477.24;;;19.99;70.92
62926;BME280;55732;52.248;-0.844;2023-07-31T11:04:24;99476.46;;;19.91;70.89
62926;BME280;55732;52.248;-0.844;2023-07-31T11:07:01;99459.21;;;19.86;71.28
62926;BME280;55732;52.248;-0.844;2023-07-31T11:09:31;99440.27;;;19.83;71.23
62926;BME280;55732;52.248;-0.844;2023-07-31T11:11:58;99442.31;;;19.79;71.11
62926;BME280;55732;52.248;-0.844;2023-07-31T11:14:24;99444.48;;;19.72;70.32
62926;BME280;55732;52.248;-0.844;2023-07-31T11:16:50;99448.23;;;19.60;70.04
62926;BME280;55732;52.248;-0.844;2023-07-31T11:19:23;99458.95;;;19.50;69.81
62926;BME280;55732;52.248;-0.844;2023-07-31T11:21:50;99475.70;;;19.43;69.93
62926;BME280;55732;52.248;-0.844;2023-07-31T11:24:16;99481.00;;;19.37;69.45
62926;BME280;55732;52.248;-0.844;2023-07-31T11:29:15;99500.49;;;19.24;68.72
62926;BME280;55732;52.248;-0.844;2023-07-31T11:31:47;99495.98;;;19.16;68.41
62926;BME280;55732;52.248;-0.844;2023-07-31T11:34:13;99498.34;;;19.11;68.28
62926;BME280;55732;52.248;-0.844;2023-07-31T11:36:38;99497.73;;;19.06;68.14
62926;BME280;55732;52.248;-0.844;2023-07-31T11:39:05;99499.84;;;19.03;68.45
62926;BME280;55732;52.248;-0.844;2023-07-31T11:41:31;99490.14;;;19.01;68.52
62926;BME280;55732;52.248;-0.844;2023-07-31T11:44:00;99476.96;;;19.04;68.57
62926;BME280;55732;52.248;-0.844;2023-07-31T11:46:26;99477.70;;;19.07;68.60
62926;BME280;55732;52.248;-0.844;2023-07-31T11:48:59;99474.48;;;19.07;68.64
62926;BME280;55732;52.248;-0.844;2023-07-31T11:51:25;99470.34;;;19.04;68.29
62926;BME280;55732;52.248;-0.844;2023-07-31T11:53:53;99466.95;;;19.01;67.96
62926;BME280;55732;52.248;-0.844;2023-07-31T11:56:23;99455.11;;;19.02;68.28
62926;BME280;55732;52.248;-0.844;2023-07-31T11:58:53;99445.33;;;19.08;68.09
62926;BME280;55732;52.248;-0.844;2023-07-31T12:01:21;99436.23;;;19.15;67.88
62926;BME280;55732;52.248;-0.844;2023-07-31T12:03:48;99433.96;;;19.20;67.79
62926;BME280;55732;52.248;-0.844;2023-07-31T12:06:14;99426.12;;;19.23;67.63
62926;BME280;55732;52.248;-0.844;2023-07-31T12:08:40;99415.58;;;19.21;67.22
62926;BME280;55732;52.248;-0.844;2023-07-31T12:11:07;99414.30;;;19.18;67.13
62926;BME280;55732;52.248;-0.844;2023-07-31T12:13:34;99413.80;;;19.11;67.11
62926;BME280;55732;52.248;-0.844;2023-07-31T12:16:02;99413.83;;;19.03;67.10
62926;BME280;55732;52.248;-0.844;2023-07-31T12:18:33;99419.00;;;18.97;67.40
62926;BME280;55732;52.248;-0.844;2023-07-31T12:21:01;99417.40;;;18.91;67.61
62926;BME280;55732;52.248;-0.844;2023-07-31T12:23:32;99412.02;;;18.85;67.87
62926;BME280;55732;52.248;-0.844;2023-07-31T12:26:09;99411.77;;;18.79;68.02
62926;BME280;55732;52.248;-0.844;2023-07-31T12:28:36;99416.55;;;18.73;68.21
62926;BME280;55732;52.248;-0.844;2023-07-31T12:31:03;99411.33;;;18.71;68.55
62926;BME280;55732;52.248;-0.844;2023-07-31T12:33:37;99411.72;;;18.67;68.47
62926;BME280;55732;52.248;-0.844;2023-07-31T12:36:08;99415.27;;;18.60;68.64
62926;BME280;55732;52.248;-0.844;2023-07-31T12:38:33;99416.36;;;18.56;69.09
62926;BME280;55732;52.248;-0.844;2023-07-31T12:40:59;99412.16;;;18.51;69.30
62926;BME280;55732;52.248;-0.844;2023-07-31T12:43:24;99413.65;;;18.47;69.57
62926;BME280;55732;52.248;-0.844;2023-07-31T12:45:50;99415.45;;;18.43;69.87
62926;BME280;55732;52.248;-0.844;2023-07-31T12:48:15;99403.71;;;18.36;70.53
62926;BME280;55732;52.248;-0.844;2023-07-31T12:50:41;99393.00;;;18.36;70.98
62926;BME280;55732;52.248;-0.844;2023-07-31T12:53:06;99379.09;;;18.32;71.52